sensor_id;sensor_type;location;lat;lon;timestamp;P1;durP1;ratioP1;P2;durP2;ratioP2
53654;SDS011;39558;52.028;8.536;2023-07-20T00:01:45;1.65;;;1.00;;
53654;SDS011;39558;52.028;8.536;2023-07-20T00:04:14;1.77;;;0.88;;
53654;SDS011;39558;52.028;8.536;2023-07-20T00:06:42;1.70;;;0.70;;
53654;SDS011;39558;52.028;8.536;2023-07-20T00:09:08;2.03;;;1.00;;
53654;SDS011;39558;52.028;8.536;2023-07-20T00:11:37;2.00;;;0.88;;
53654;SDS011;39558;52.028;8.536;2023-07-20T00:14:06;1.80;;;0.60;;
53654;SDS011;39558;52.028;8.536;2023-07-20T00:16:35;1.58;;;0.70;;
53654;SDS011;39558;52.028;8.536;2023-07-20T00:19:01;1.50;;;0.90;;
53654;SDS011;39558;52.028;8.536;2023-07-20T00:21:27;1.80;;;0.98;;
53654;SDS011;39558;52.028;8.536;2023-07-20T00:23:53;1.52;;;0.75;;
53654;SDS011;39558;52.028;8.536;2023-07-20T00:26:19;1.83;;;0.70;;
53654;SDS011;39558;52.028;8.536;2023-07-20T00:28:48;1.20;;;0.82;;
53654;SDS011;39558;52.028;8.536;2023-07-20T00:31:14;1.30;;;0.73;;
53654;SDS011;39558;52.028;8.536;2023-07-20T00:33:42;1.42;;;0.75;;
53654;SDS011;39558;52.028;8.536;2023-07-20T00:36:08;2.00;;;1.17;;
53654;SDS011;39558;52.028;8.536;2023-07-20T00:38:34;2.50;;;1.33;;
53654;SDS011;39558;52.028;8.536;2023-07-20T00:41:00;1.58;;;0.85;;
53654;SDS011;39558;52.028;8.536;2023-07-20T00:43:26;1.60;;;0.70;;
53654;SDS011;39558;52.028;8.536;2023-07-20T00:45:55;1.80;;;0.93;;
53654;SDS011;39558;52.028;8.536;2023-07-20T00:48:21;1.38;;;0.77;;
53654;SDS011;39558;52.028;8.536;2023-07-20T00:50:49;1.77;;;0.90;;
53654;SDS011;39558;52.028;8.536;2023-07-20T00:53:15;1.60;;;0.70;;
53654;SDS011;39558;52.028;8.536;2023-07-20T00:55:42;1.33;;;0.70;;
53654;SDS011;39558;52.028;8.536;2023-07-20T00:58:13;1.50;;;0.70;;
53654;SDS011;39558;52.028;8.536;2023-07-20T01:00:41;1.48;;;0.80;;
53654;SDS011;39558;52.028;8.536;2023-07-20T01:03:07;1.73;;;0.85;;
53654;SDS011;39558;52.028;8.536;2023-07-20T01:05:36;1.80;;;0.80;;
53654;SDS011;39558;52.028;8.536;2023-07-20T01:08:11;1.52;;;0.80;;
53654;SDS011;39558;52.028;8.536;2023-07-20T01:10:49;2.00;;;0.80;;
53654;SDS011;39558;52.028;8.536;2023-07-20T01:13:16;1.73;;;0.80;;
53654;SDS011;39558;52.028;8.536;2023-07-20T01:15:48;1.27;;;0.77;;
53654;SDS011;39558;52.028;8.536;2023-07-20T01:18:15;1.80;;;0.80;;
53654;SDS011;39558;52.028;8.536;2023-07-20T01:20:41;1.30;;;0.60;;
53654;SDS011;39558;52.028;8.536;2023-07-20T01:33:45;1.50;;;0.77;;
53654;SDS011;39558;52.028;8.536;2023-07-20T01:36:12;1.48;;;0.70;;
53654;SDS011;39558;52.028;8.536;2023-07-20T01:38:39;1.60;;;0.80;;
53654;SDS011;39558;52.028;8.536;2023-07-20T01:41:05;1.73;;;0.80;;
53654;SDS011;39558;52.028;8.536;2023-07-20T01:43:34;1.75;;;0.85;;
53654;SDS011;39558;52.028;8.536;2023-07-20T01:46:00;1.35;;;0.73;;
53654;SDS011;39558;52.028;8.536;2023-07-20T01:48:25;1.65;;;0.80;;
53654;SDS011;39558;52.028;8.536;2023-07-20T01:50:51;1.90;;;1.02;;
53654;SDS011;39558;52.028;8.536;2023-07-20T01:53:23;1.48;;;0.85;;
53654;SDS011;39558;52.028;8.536;2023-07-20T01:55:49;1.77;;;0.85;;
53654;SDS011;39558;52.028;8.536;2023-07-20T01:58:14;1.70;;;0.90;;
53654;SDS011;39558;52.028;8.536;2023-07-20T02:00:40;1.63;;;0.80;;
53654;SDS011;39558;52.028;8.536;2023-07-20T02:03:09;1.10;;;0.60;;
53654;SDS011;39558;52.028;8.536;2023-07-20T02:08:05;2.05;;;0.80;;
53654;SDS011;39558;52.028;8.536;2023-07-20T02:10:30;1.48;;;0.90;;
53654;SDS011;39558;52.028;8.536;2023-07-20T02:12:59;1.40;;;0.80;;
53654;SDS011;39558;52.028;8.536;2023-07-20T02:15:25;1.70;;;0.85;;
53654;SDS011;39558;52.028;8.536;2023-07-20T02:17:52;1.13;;;0.57;;
53654;SDS011;39558;52.028;8.536;2023-07-20T02:20:17;2.17;;;0.90;;
53654;SDS011;39558;52.028;8.536;2023-07-20T02:22:44;1.55;;;0.70;;
53654;SDS011;39558;52.028;8.536;2023-07-20T02:25:10;1.02;;;0.65;;
53654;SDS011;39558;52.028;8.536;2023-07-20T02:27:36;1.50;;;0.70;;
53654;SDS011;39558;52.028;8.536;2023-07-20T02:30:02;1.27;;;0.70;;
53654;SDS011;39558;52.028;8.536;2023-07-20T02:32:28;1.48;;;0.85;;
53654;SDS011;39558;52.028;8.536;2023-07-20T02:34:57;1.20;;;0.80;;
53654;SDS011;39558;52.028;8.536;2023-07-20T02:37:23;2.30;;;1.00;;
53654;SDS011;39558;52.028;8.536;2023-07-20T02:39:49;1.65;;;0.80;;
53654;SDS011;39558;52.028;8.536;2023-07-20T02:42:15;1.70;;;0.80;;
53654;SDS011;39558;52.028;8.536;2023-07-20T02:44:41;1.40;;;0.75;;
53654;SDS011;39558;52.028;8.536;2023-07-20T02:47:07;2.05;;;1.02;;
53654;SDS011;39558;52.028;8.536;2023-07-20T02:49:33;1.52;;;0.70;;
53654;SDS011;39558;52.028;8.536;2023-07-20T02:52:01;1.65;;;0.75;;
53654;SDS011;39558;52.028;8.536;2023-07-20T02:54:28;1.73;;;0.80;;
53654;SDS011;39558;52.028;8.536;2023-07-20T02:56:55;1.88;;;0.90;;
53654;SDS011;39558;52.028;8.536;2023-07-20T02:59:20;1.17;;;0.68;;
53654;SDS011;39558;52.028;8.536;2023-07-20T03:01:46;1.15;;;0.80;;
53654;SDS011;39558;52.028;8.536;2023-07-20T03:04:12;0.77;;;0.52;;
53654;SDS011;39558;52.028;8.536;2023-07-20T03:06:38;2.33;;;0.60;;
53654;SDS011;39558;52.028;8.536;2023-07-20T03:09:04;1.25;;;0.73;;
53654;SDS011;39558;52.028;8.536;2023-07-20T03:11:33;1.75;;;0.80;;
53654;SDS011;39558;52.028;8.536;2023-07-20T03:13:59;2.00;;;0.95;;
53654;SDS011;39558;52.028;8.536;2023-07-20T03:16:25;1.35;;;0.80;;
53654;SDS011;39558;52.028;8.536;2023-07-20T03:18:51;1.50;;;0.70;;
53654;SDS011;39558;52.028;8.536;2023-07-20T03:21:19;1.85;;;0.68;;
53654;SDS011;39558;52.028;8.536;2023-07-20T03:23:48;1.77;;;0.90;;
53654;SDS011;39558;52.028;8.536;2023-07-20T03:26:14;1.05;;;0.60;;
53654;SDS011;39558;52.028;8.536;2023-07-20T03:28:40;1.30;;;0.70;;
53654;SDS011;39558;52.028;8.536;2023-07-20T03:31:06;1.92;;;0.88;;
53654;SDS011;39558;52.028;8.536;2023-07-20T03:33:32;0.85;;;0.60;;
53654;SDS011;39558;52.028;8.536;2023-07-20T03:35:58;1.30;;;0.70;;
53654;SDS011;39558;52.028;8.536;2023-07-20T03:38:24;0.80;;;0.47;;
53654;SDS011;39558;52.028;8.536;2023-07-20T03:40:51;1.13;;;0.70;;
53654;SDS011;39558;52.028;8.536;2023-07-20T03:43:17;1.85;;;0.82;;
53654;SDS011;39558;52.028;8.536;2023-07-20T03:45:43;2.03;;;0.88;;
53654;SDS011;39558;52.028;8.536;2023-07-20T03:48:10;1.20;;;0.63;;
53654;SDS011;39558;52.028;8.536;2023-07-20T03:50:36;1.05;;;0.65;;
53654;SDS011;39558;52.028;8.536;2023-07-20T03:53:05;1.55;;;0.60;;
53654;SDS011;39558;52.028;8.536;2023-07-20T03:55:31;1.80;;;0.57;;
53654;SDS011;39558;52.028;8.536;2023-07-20T03:57:57;1.17;;;0.70;;
53654;SDS011;39558;52.028;8.536;2023-07-20T04:00:23;1.50;;;0.85;;
53654;SDS011;39558;52.028;8.536;2023-07-20T04:02:49;1.88;;;0.85;;
53654;SDS011;39558;52.028;8.536;2023-07-20T04:05:17;0.93;;;0.60;;
53654;SDS011;39558;52.028;8.536;2023-07-20T04:07:43;1.25;;;0.70;;
53654;SDS011;39558;52.028;8.536;2023-07-20T04:10:09;2.25;;;1.05;;
53654;SDS011;39558;52.028;8.536;2023-07-20T04:12:35;1.88;;;0.77;;
53654;SDS011;39558;52.028;8.536;2023-07-20T04:15:01;2.00;;;0.80;;
53654;SDS011;39558;52.028;8.536;2023-07-20T04:17:28;1.27;;;0.70;;
53654;SDS011;39558;52.028;8.536;2023-07-20T04:19:54;1.42;;;0.80;;
53654;SDS011;39558;52.028;8.536;2023-07-20T04:22:20;1.30;;;0.88;;
53654;SDS011;39558;52.028;8.536;2023-07-20T04:24:49;1.30;;;0.80;;
53654;SDS011;39558;52.028;8.536;2023-07-20T04:27:14;2.63;;;1.13;;
53654;SDS011;39558;52.028;8.536;2023-07-20T04:29:40;1.17;;;0.60;;
53654;SDS011;39558;52.028;8.536;2023-07-20T04:32:06;2.08;;;0.90;;
53654;SDS011;39558;52.028;8.536;2023-07-20T04:34:32;1.30;;;0.60;;
53654;SDS011;39558;52.028;8.536;2023-07-20T04:37:02;1.20;;;0.75;;
53654;SDS011;39558;52.028;8.536;2023-07-20T04:39:28;1.88;;;0.80;;
53654;SDS011;39558;52.028;8.536;2023-07-20T04:41:54;1.67;;;1.15;;
53654;SDS011;39558;52.028;8.536;2023-07-20T04:44:22;1.73;;;0.70;;
53654;SDS011;39558;52.028;8.536;2023-07-20T04:46:48;1.70;;;0.70;;
53654;SDS011;39558;52.028;8.536;2023-07-20T04:49:13;1.48;;;0.70;;
53654;SDS011;39558;52.028;8.536;2023-07-20T04:51:39;1.58;;;0.80;;
53654;SDS011;39558;52.028;8.536;2023-07-20T04:54:05;1.25;;;0.73;;
53654;SDS011;39558;52.028;8.536;2023-07-20T04:56:31;2.40;;;0.60;;
53654;SDS011;39558;52.028;8.536;2023-07-20T04:58:58;1.50;;;0.75;;
53654;SDS011;39558;52.028;8.536;2023-07-20T05:01:24;1.38;;;0.68;;
53654;SDS011;39558;52.028;8.536;2023-07-20T05:03:51;1.00;;;0.70;;
53654;SDS011;39558;52.028;8.536;2023-07-20T05:06:17;1.98;;;0.70;;
53654;SDS011;39558;52.028;8.536;2023-07-20T05:08:43;1.67;;;0.82;;
53654;SDS011;39558;52.028;8.536;2023-07-20T05:11:09;1.42;;;0.68;;
53654;SDS011;39558;52.028;8.536;2023-07-20T05:13:38;1.40;;;0.70;;
53654;SDS011;39558;52.028;8.536;2023-07-20T05:16:04;1.33;;;0.70;;
53654;SDS011;39558;52.028;8.536;2023-07-20T05:18:30;1.20;;;0.60;;
53654;SDS011;39558;52.028;8.536;2023-07-20T05:20:56;1.00;;;0.60;;
53654;SDS011;39558;52.028;8.536;2023-07-20T05:23:22;1.30;;;0.55;;
53654;SDS011;39558;52.028;8.536;2023-07-20T05:25:58;1.10;;;0.68;;
53654;SDS011;39558;52.028;8.536;2023-07-20T05:28:26;1.75;;;0.88;;
53654;SDS011;39558;52.028;8.536;2023-07-20T05:30:52;1.77;;;0.85;;
53654;SDS011;39558;52.028;8.536;2023-07-20T05:33:19;1.45;;;0.80;;
53654;SDS011;39558;52.028;8.536;2023-07-20T05:35:45;1.25;;;0.65;;
53654;SDS011;39558;52.028;8.536;2023-07-20T05:38:11;1.90;;;1.02;;
53654;SDS011;39558;52.028;8.536;2023-07-20T05:40:38;1.88;;;0.68;;
53654;SDS011;39558;52.028;8.536;2023-07-20T05:43:04;1.40;;;0.70;;
53654;SDS011;39558;52.028;8.536;2023-07-20T05:45:29;1.40;;;0.70;;
53654;SDS011;39558;52.028;8.536;2023-07-20T05:47:55;1.17;;;0.60;;
53654;SDS011;39558;52.028;8.536;2023-07-20T05:50:21;1.40;;;0.80;;
53654;SDS011;39558;52.028;8.536;2023-07-20T05:52:47;1.65;;;0.85;;
53654;SDS011;39558;52.028;8.536;2023-07-20T05:55:13;1.33;;;0.77;;
53654;SDS011;39558;52.028;8.536;2023-07-20T05:57:39;1.45;;;0.80;;
53654;SDS011;39558;52.028;8.536;2023-07-20T06:00:08;1.52;;;0.77;;
53654;SDS011;39558;52.028;8.536;2023-07-20T06:02:34;1.80;;;1.08;;
53654;SDS011;39558;52.028;8.536;2023-07-20T06:05:00;1.10;;;0.68;;
53654;SDS011;39558;52.028;8.536;2023-07-20T06:07:29;1.65;;;0.85;;
53654;SDS011;39558;52.028;8.536;2023-07-20T06:09:55;1.58;;;0.95;;
53654;SDS011;39558;52.028;8.536;2023-07-20T06:12:21;2.30;;;0.90;;
53654;SDS011;39558;52.028;8.536;2023-07-20T06:14:47;0.90;;;0.55;;
53654;SDS011;39558;52.028;8.536;2023-07-20T06:17:13;1.33;;;0.68;;
53654;SDS011;39558;52.028;8.536;2023-07-20T06:19:41;1.02;;;0.82;;
53654;SDS011;39558;52.028;8.536;2023-07-20T06:22:07;2.33;;;1.08;;
53654;SDS011;39558;52.028;8.536;2023-07-20T06:24:33;2.45;;;0.80;;
53654;SDS011;39558;52.028;8.536;2023-07-20T06:26:59;6.68;;;1.30;;
53654;SDS011;39558;52.028;8.536;2023-07-20T06:29:25;1.25;;;0.75;;
53654;SDS011;39558;52.028;8.536;2023-07-20T06:31:50;2.10;;;0.90;;
53654;SDS011;39558;52.028;8.536;2023-07-20T06:34:16;3.20;;;0.80;;
53654;SDS011;39558;52.028;8.536;2023-07-20T06:36:42;1.65;;;0.80;;
53654;SDS011;39558;52.028;8.536;2023-07-20T06:39:11;2.90;;;1.15;;
53654;SDS011;39558;52.028;8.536;2023-07-20T06:41:37;1.63;;;0.70;;
53654;SDS011;39558;52.028;8.536;2023-07-20T06:44:03;2.55;;;0.77;;
53654;SDS011;39558;52.028;8.536;2023-07-20T06:46:32;1.80;;;0.70;;
53654;SDS011;39558;52.028;8.536;2023-07-20T06:48:58;1.85;;;0.73;;
53654;SDS011;39558;52.028;8.536;2023-07-20T06:51:24;1.52;;;0.63;;
53654;SDS011;39558;52.028;8.536;2023-07-20T06:53:50;2.10;;;0.68;;
53654;SDS011;39558;52.028;8.536;2023-07-20T06:56:15;1.10;;;0.60;;
53654;SDS011;39558;52.028;8.536;2023-07-20T06:58:41;2.03;;;0.60;;
53654;SDS011;39558;52.028;8.536;2023-07-20T07:01:08;3.55;;;0.70;;
53654;SDS011;39558;52.028;8.536;2023-07-20T07:03:34;3.00;;;0.98;;
53654;SDS011;39558;52.028;8.536;2023-07-20T07:06:01;4.70;;;0.82;;
53654;SDS011;39558;52.028;8.536;2023-07-20T07:08:27;7.45;;;1.55;;
53654;SDS011;39558;52.028;8.536;2023-07-20T07:10:53;3.70;;;0.95;;
53654;SDS011;39558;52.028;8.536;2023-07-20T07:13:19;6.50;;;0.70;;
53654;SDS011;39558;52.028;8.536;2023-07-20T07:15:45;1.30;;;0.80;;
53654;SDS011;39558;52.028;8.536;2023-07-20T07:18:11;5.32;;;1.02;;
53654;SDS011;39558;52.028;8.536;2023-07-20T07:20:37;4.15;;;0.80;;
53654;SDS011;39558;52.028;8.536;2023-07-20T07:23:06;4.40;;;0.90;;
53654;SDS011;39558;52.028;8.536;2023-07-20T07:25:34;2.53;;;0.70;;
53654;SDS011;39558;52.028;8.536;2023-07-20T07:28:00;1.50;;;0.60;;
53654;SDS011;39558;52.028;8.536;2023-07-20T07:30:26;1.52;;;0.60;;
53654;SDS011;39558;52.028;8.536;2023-07-20T07:32:52;3.88;;;0.73;;
53654;SDS011;39558;52.028;8.536;2023-07-20T07:35:18;1.75;;;0.75;;
53654;SDS011;39558;52.028;8.536;2023-07-20T07:37:44;1.83;;;0.80;;
53654;SDS011;39558;52.028;8.536;2023-07-20T07:40:11;3.30;;;0.80;;
53654;SDS011;39558;52.028;8.536;2023-07-20T07:42:37;1.92;;;0.60;;
53654;SDS011;39558;52.028;8.536;2023-07-20T07:45:03;1.60;;;0.52;;
53654;SDS011;39558;52.028;8.536;2023-07-20T07:47:29;1.05;;;0.60;;
53654;SDS011;39558;52.028;8.536;2023-07-20T07:49:55;3.00;;;0.80;;
53654;SDS011;39558;52.028;8.536;2023-07-20T07:52:22;1.83;;;0.70;;
53654;SDS011;39558;52.028;8.536;2023-07-20T07:54:48;1.33;;;0.50;;
53654;SDS011;39558;52.028;8.536;2023-07-20T07:57:14;2.90;;;0.68;;
53654;SDS011;39558;52.028;8.536;2023-07-20T07:59:42;1.42;;;0.60;;
53654;SDS011;39558;52.028;8.536;2023-07-20T08:02:08;2.40;;;0.60;;
53654;SDS011;39558;52.028;8.536;2023-07-20T08:04:36;2.13;;;0.88;;
53654;SDS011;39558;52.028;8.536;2023-07-20T08:07:03;1.42;;;0.63;;
53654;SDS011;39558;52.028;8.536;2023-07-20T08:09:29;1.95;;;0.60;;
53654;SDS011;39558;52.028;8.536;2023-07-20T08:11:55;2.55;;;0.80;;
53654;SDS011;39558;52.028;8.536;2023-07-20T08:14:21;1.77;;;0.68;;
53654;SDS011;39558;52.028;8.536;2023-07-20T08:16:47;1.55;;;0.77;;
53654;SDS011;39558;52.028;8.536;2023-07-20T08:19:13;0.77;;;0.50;;
53654;SDS011;39558;52.028;8.536;2023-07-20T08:21:39;2.58;;;0.65;;
53654;SDS011;39558;52.028;8.536;2023-07-20T08:24:05;2.17;;;0.85;;
53654;SDS011;39558;52.028;8.536;2023-07-20T08:26:30;2.20;;;0.80;;
53654;SDS011;39558;52.028;8.536;2023-07-20T08:28:56;1.25;;;0.80;;
53654;SDS011;39558;52.028;8.536;2023-07-20T08:31:22;1.42;;;0.47;;
53654;SDS011;39558;52.028;8.536;2023-07-20T08:33:48;2.15;;;0.65;;
53654;SDS011;39558;52.028;8.536;2023-07-20T08:36:14;1.48;;;0.40;;
53654;SDS011;39558;52.028;8.536;2023-07-20T08:38:43;2.10;;;0.47;;
53654;SDS011;39558;52.028;8.536;2023-07-20T08:41:12;2.70;;;0.60;;
53654;SDS011;39558;52.028;8.536;2023-07-20T08:43:39;0.70;;;0.40;;
53654;SDS011;39558;52.028;8.536;2023-07-20T08:46:10;1.20;;;0.40;;
53654;SDS011;39558;52.028;8.536;2023-07-20T08:48:36;1.27;;;0.30;;
53654;SDS011;39558;52.028;8.536;2023-07-20T08:51:02;1.17;;;0.50;;
53654;SDS011;39558;52.028;8.536;2023-07-20T08:53:29;0.88;;;0.30;;
53654;SDS011;39558;52.028;8.536;2023-07-20T08:55:56;0.98;;;0.32;;
53654;SDS011;39558;52.028;8.536;2023-07-20T08:58:23;1.38;;;0.30;;
53654;SDS011;39558;52.028;8.536;2023-07-20T09:00:50;1.35;;;0.40;;
53654;SDS011;39558;52.028;8.536;2023-07-20T09:03:18;3.55;;;0.47;;
53654;SDS011;39558;52.028;8.536;2023-07-20T09:05:44;5.68;;;0.90;;
53654;SDS011;39558;52.028;8.536;2023-07-20T09:08:10;3.38;;;1.50;;
53654;SDS011;39558;52.028;8.536;2023-07-20T09:10:39;4.75;;;1.08;;
53654;SDS011;39558;52.028;8.536;2023-07-20T09:13:04;1.38;;;0.95;;
53654;SDS011;39558;52.028;8.536;2023-07-20T09:15:30;2.35;;;0.90;;
53654;SDS011;39558;52.028;8.536;2023-07-20T09:17:56;1.60;;;0.70;;
53654;SDS011;39558;52.028;8.536;2023-07-20T09:20:26;2.15;;;0.98;;
53654;SDS011;39558;52.028;8.536;2023-07-20T09:22:52;1.75;;;0.70;;
53654;SDS011;39558;52.028;8.536;2023-07-20T09:25:18;3.30;;;0.70;;
53654;SDS011;39558;52.028;8.536;2023-07-20T09:27:48;4.82;;;0.63;;
53654;SDS011;39558;52.028;8.536;2023-07-20T09:30:15;2.13;;;0.70;;
53654;SDS011;39558;52.028;8.536;2023-07-20T09:32:44;2.15;;;0.70;;
53654;SDS011;39558;52.028;8.536;2023-07-20T09:35:14;2.67;;;0.77;;
53654;SDS011;39558;52.028;8.536;2023-07-20T09:37:40;3.67;;;0.70;;
53654;SDS011;39558;52.028;8.536;2023-07-20T09:40:08;3.28;;;0.70;;
53654;SDS011;39558;52.028;8.536;2023-07-20T09:42:34;2.78;;;0.50;;
53654;SDS011;39558;52.028;8.536;2023-07-20T09:45:03;4.15;;;0.57;;
53654;SDS011;39558;52.028;8.536;2023-07-20T09:47:33;1.35;;;0.57;;
53654;SDS011;39558;52.028;8.536;2023-07-20T09:50:01;1.10;;;0.35;;
53654;SDS011;39558;52.028;8.536;2023-07-20T09:52:28;2.78;;;0.60;;
53654;SDS011;39558;52.028;8.536;2023-07-20T09:54:54;1.45;;;0.70;;
53654;SDS011;39558;52.028;8.536;2023-07-20T09:57:21;3.95;;;0.60;;
53654;SDS011;39558;52.028;8.536;2023-07-20T09:59:47;1.85;;;0.40;;
53654;SDS011;39558;52.028;8.536;2023-07-20T10:02:26;3.10;;;0.40;;
53654;SDS011;39558;52.028;8.536;2023-07-20T10:04:56;4.22;;;0.40;;
53654;SDS011;39558;52.028;8.536;2023-07-20T10:07:23;3.00;;;0.60;;
53654;SDS011;39558;52.028;8.536;2023-07-20T10:09:51;1.75;;;0.30;;
53654;SDS011;39558;52.028;8.536;2023-07-20T10:12:22;2.72;;;0.50;;
53654;SDS011;39558;52.028;8.536;2023-07-20T10:14:58;1.67;;;0.43;;
53654;SDS011;39558;52.028;8.536;2023-07-20T10:17:26;2.40;;;0.47;;
53654;SDS011;39558;52.028;8.536;2023-07-20T10:19:53;1.58;;;0.30;;
53654;SDS011;39558;52.028;8.536;2023-07-20T10:22:24;1.05;;;0.47;;
53654;SDS011;39558;52.028;8.536;2023-07-20T10:24:51;0.40;;;0.28;;
53654;SDS011;39558;52.028;8.536;2023-07-20T10:27:19;1.63;;;0.73;;
53654;SDS011;39558;52.028;8.536;2023-07-20T10:29:46;2.33;;;0.40;;
53654;SDS011;39558;52.028;8.536;2023-07-20T10:32:12;1.30;;;0.38;;
53654;SDS011;39558;52.028;8.536;2023-07-20T10:34:38;0.50;;;0.30;;
53654;SDS011;39558;52.028;8.536;2023-07-20T10:37:04;3.00;;;0.38;;
53654;SDS011;39558;52.028;8.536;2023-07-20T10:39:31;0.47;;;0.28;;
53654;SDS011;39558;52.028;8.536;2023-07-20T10:42:01;2.60;;;0.63;;
53654;SDS011;39558;52.028;8.536;2023-07-20T10:44:28;1.25;;;0.50;;
53654;SDS011;39558;52.028;8.536;2023-07-20T10:47:00;1.33;;;0.50;;
53654;SDS011;39558;52.028;8.536;2023-07-20T10:49:27;0.75;;;0.30;;
53654;SDS011;39558;52.028;8.536;2023-07-20T10:51:56;0.98;;;0.47;;
53654;SDS011;39558;52.028;8.536;2023-07-20T10:56:49;1.25;;;0.32;;
53654;SDS011;39558;52.028;8.536;2023-07-20T11:01:57;3.63;;;0.50;;
53654;SDS011;39558;52.028;8.536;2023-07-20T11:04:42;1.23;;;0.43;;
53654;SDS011;39558;52.028;8.536;2023-07-20T11:07:08;2.38;;;0.50;;
53654;SDS011;39558;52.028;8.536;2023-07-20T11:09:35;3.97;;;0.50;;
53654;SDS011;39558;52.028;8.536;2023-07-20T11:12:17;2.90;;;0.45;;
53654;SDS011;39558;52.028;8.536;2023-07-20T11:17:30;1.13;;;0.40;;
53654;SDS011;39558;52.028;8.536;2023-07-20T11:19:56;1.17;;;0.70;;
53654;SDS011;39558;52.028;8.536;2023-07-20T11:22:22;0.73;;;0.32;;
53654;SDS011;39558;52.028;8.536;2023-07-20T11:24:51;0.50;;;0.30;;
53654;SDS011;39558;52.028;8.536;2023-07-20T11:27:20;1.65;;;0.30;;
53654;SDS011;39558;52.028;8.536;2023-07-20T11:29:47;1.65;;;0.30;;
53654;SDS011;39558;52.028;8.536;2023-07-20T11:32:20;1.85;;;0.35;;
53654;SDS011;39558;52.028;8.536;2023-07-20T11:34:47;2.42;;;0.52;;
53654;SDS011;39558;52.028;8.536;2023-07-20T11:37:13;2.95;;;0.17;;
53654;SDS011;39558;52.028;8.536;2023-07-20T11:39:39;1.30;;;0.30;;
53654;SDS011;39558;52.028;8.536;2023-07-20T11:42:05;0.28;;;0.17;;
53654;SDS011;39558;52.028;8.536;2023-07-20T11:44:31;3.83;;;0.30;;
53654;SDS011;39558;52.028;8.536;2023-07-20T11:47:05;4.47;;;0.38;;
53654;SDS011;39558;52.028;8.536;2023-07-20T11:49:38;3.30;;;0.38;;
53654;SDS011;39558;52.028;8.536;2023-07-20T11:52:07;0.80;;;0.30;;
53654;SDS011;39558;52.028;8.536;2023-07-20T11:54:37;0.35;;;0.10;;
53654;SDS011;39558;52.028;8.536;2023-07-20T11:57:03;0.52;;;0.35;;
53654;SDS011;39558;52.028;8.536;2023-07-20T11:59:32;0.85;;;0.30;;
53654;SDS011;39558;52.028;8.536;2023-07-20T12:02:02;0.50;;;0.30;;
53654;SDS011;39558;52.028;8.536;2023-07-20T12:04:28;1.03;;;0.20;;
53654;SDS011;39558;52.028;8.536;2023-07-20T12:06:54;2.05;;;0.28;;
53654;SDS011;39558;52.028;8.536;2023-07-20T12:09:20;1.20;;;0.20;;
53654;SDS011;39558;52.028;8.536;2023-07-20T12:11:48;4.50;;;0.45;;
53654;SDS011;39558;52.028;8.536;2023-07-20T12:14:14;1.60;;;0.30;;
53654;SDS011;39558;52.028;8.536;2023-07-20T12:16:40;0.68;;;0.20;;
53654;SDS011;39558;52.028;8.536;2023-07-20T12:19:07;0.65;;;0.22;;
53654;SDS011;39558;52.028;8.536;2023-07-20T12:21:33;0.93;;;0.20;;
53654;SDS011;39558;52.028;8.536;2023-07-20T12:24:00;0.43;;;0.20;;
53654;SDS011;39558;52.028;8.536;2023-07-20T12:26:28;0.88;;;0.30;;
53654;SDS011;39558;52.028;8.536;2023-07-20T12:28:54;0.60;;;0.30;;
53654;SDS011;39558;52.028;8.536;2023-07-20T12:31:23;0.82;;;0.30;;
53654;SDS011;39558;52.028;8.536;2023-07-20T12:33:49;3.05;;;0.30;;
53654;SDS011;39558;52.028;8.536;2023-07-20T12:36:17;0.70;;;0.20;;
53654;SDS011;39558;52.028;8.536;2023-07-20T12:38:43;0.63;;;0.28;;
53654;SDS011;39558;52.028;8.536;2023-07-20T12:41:12;0.32;;;0.20;;
53654;SDS011;39558;52.028;8.536;2023-07-20T12:43:41;0.57;;;0.20;;
53654;SDS011;39558;52.028;8.536;2023-07-20T12:46:07;1.15;;;0.22;;
53654;SDS011;39558;52.028;8.536;2023-07-20T12:48:33;0.98;;;0.20;;
53654;SDS011;39558;52.028;8.536;2023-07-20T12:51:00;0.68;;;0.20;;
53654;SDS011;39558;52.028;8.536;2023-07-20T12:53:25;2.33;;;0.20;;
53654;SDS011;39558;52.028;8.536;2023-07-20T12:55:52;0.50;;;0.30;;
53654;SDS011;39558;52.028;8.536;2023-07-20T12:58:18;0.65;;;0.10;;
53654;SDS011;39558;52.028;8.536;2023-07-20T13:00:44;0.82;;;0.20;;
53654;SDS011;39558;52.028;8.536;2023-07-20T13:03:09;2.10;;;0.30;;
53654;SDS011;39558;52.028;8.536;2023-07-20T13:05:35;1.83;;;0.30;;
53654;SDS011;39558;52.028;8.536;2023-07-20T13:08:02;0.57;;;0.20;;
53654;SDS011;39558;52.028;8.536;2023-07-20T13:10:28;1.40;;;0.30;;
53654;SDS011;39558;52.028;8.536;2023-07-20T13:12:54;0.95;;;0.20;;
53654;SDS011;39558;52.028;8.536;2023-07-20T13:15:19;1.00;;;0.20;;
53654;SDS011;39558;52.028;8.536;2023-07-20T13:17:45;2.00;;;0.43;;
53654;SDS011;39558;52.028;8.536;2023-07-20T13:20:12;2.78;;;0.30;;
53654;SDS011;39558;52.028;8.536;2023-07-20T13:22:39;0.52;;;0.10;;
53654;SDS011;39558;52.028;8.536;2023-07-20T13:25:05;1.08;;;0.32;;
53654;SDS011;39558;52.028;8.536;2023-07-20T13:27:31;0.75;;;0.20;;
53654;SDS011;39558;52.028;8.536;2023-07-20T13:29:58;0.30;;;0.22;;
53654;SDS011;39558;52.028;8.536;2023-07-20T13:32:23;0.57;;;0.20;;
53654;SDS011;39558;52.028;8.536;2023-07-20T13:34:49;3.35;;;0.30;;
53654;SDS011;39558;52.028;8.536;2023-07-20T13:37:15;0.88;;;0.20;;
53654;SDS011;39558;52.028;8.536;2023-07-20T13:39:41;1.77;;;0.20;;
53654;SDS011;39558;52.028;8.536;2023-07-20T13:42:08;1.65;;;0.35;;
53654;SDS011;39558;52.028;8.536;2023-07-20T13:44:34;1.08;;;0.30;;
53654;SDS011;39558;52.028;8.536;2023-07-20T13:47:01;3.50;;;0.30;;
53654;SDS011;39558;52.028;8.536;2023-07-20T13:49:27;0.95;;;0.20;;
53654;SDS011;39558;52.028;8.536;2023-07-20T13:51:55;1.92;;;0.22;;
53654;SDS011;39558;52.028;8.536;2023-07-20T13:54:22;2.08;;;0.20;;
53654;SDS011;39558;52.028;8.536;2023-07-20T13:56:48;1.48;;;0.43;;
53654;SDS011;39558;52.028;8.536;2023-07-20T13:59:13;3.22;;;0.40;;
53654;SDS011;39558;52.028;8.536;2023-07-20T14:01:39;1.48;;;0.40;;
53654;SDS011;39558;52.028;8.536;2023-07-20T14:04:05;2.13;;;0.32;;
53654;SDS011;39558;52.028;8.536;2023-07-20T14:06:32;0.90;;;0.40;;
53654;SDS011;39558;52.028;8.536;2023-07-20T14:08:58;8.90;;;0.43;;
53654;SDS011;39558;52.028;8.536;2023-07-20T14:11:24;1.58;;;0.20;;
53654;SDS011;39558;52.028;8.536;2023-07-20T14:13:53;0.90;;;0.30;;
53654;SDS011;39558;52.028;8.536;2023-07-20T14:16:22;0.93;;;0.30;;
53654;SDS011;39558;52.028;8.536;2023-07-20T14:18:48;1.20;;;0.30;;
53654;SDS011;39558;52.028;8.536;2023-07-20T14:21:15;0.85;;;0.40;;
53654;SDS011;39558;52.028;8.536;2023-07-20T14:23:40;1.85;;;0.30;;
53654;SDS011;39558;52.028;8.536;2023-07-20T14:26:06;1.23;;;0.30;;
53654;SDS011;39558;52.028;8.536;2023-07-20T14:28:34;1.33;;;0.20;;
53654;SDS011;39558;52.028;8.536;2023-07-20T14:31:00;0.20;;;0.10;;
53654;SDS011;39558;52.028;8.536;2023-07-20T14:33:26;1.67;;;0.40;;
53654;SDS011;39558;52.028;8.536;2023-07-20T14:35:52;0.77;;;0.17;;
53654;SDS011;39558;52.028;8.536;2023-07-20T14:38:17;0.28;;;0.10;;
53654;SDS011;39558;52.028;8.536;2023-07-20T14:40:43;3.15;;;0.40;;
53654;SDS011;39558;52.028;8.536;2023-07-20T14:43:11;0.88;;;0.20;;
53654;SDS011;39558;52.028;8.536;2023-07-20T14:45:37;1.77;;;0.40;;
53654;SDS011;39558;52.028;8.536;2023-07-20T14:48:03;1.75;;;0.30;;
53654;SDS011;39558;52.028;8.536;2023-07-20T14:50:29;1.40;;;0.30;;
53654;SDS011;39558;52.028;8.536;2023-07-20T14:52:55;2.42;;;0.30;;
53654;SDS011;39558;52.028;8.536;2023-07-20T14:55:21;0.45;;;0.10;;
53654;SDS011;39558;52.028;8.536;2023-07-20T14:57:47;2.30;;;0.30;;
53654;SDS011;39558;52.028;8.536;2023-07-20T15:00:14;1.48;;;0.25;;
53654;SDS011;39558;52.028;8.536;2023-07-20T15:02:40;7.32;;;0.40;;
53654;SDS011;39558;52.028;8.536;2023-07-20T15:05:06;2.15;;;0.38;;
53654;SDS011;39558;52.028;8.536;2023-07-20T15:07:32;2.35;;;0.40;;